createdAt,value
2019-06-08T00:00:38.809Z,0.62
2019-06-08T00:10:30.671Z,0.93
2019-06-08T00:20:33.103Z,0.95
2019-06-08T00:30:37.249Z,1.02
2019-06-08T00:40:32.608Z,0.95
2019-06-08T00:50:30.658Z,0.53
2019-06-08T01:00:34.334Z,0.40
2019-06-08T01:20:32.287Z,0.60
2019-06-08T01:30:38.616Z,0.57
2019-06-08T01:40:37.980Z,0.45
2019-06-08T01:50:33.416Z,0.80
2019-06-08T02:00:39.255Z,0.60
2019-06-08T02:10:32.939Z,0.60
2019-06-08T02:20:30.880Z,0.60
2019-06-08T02:30:36.524Z,0.80
2019-06-08T02:40:35.093Z,1.00
2019-06-08T03:00:35.482Z,1.05
2019-06-08T03:20:33.498Z,1.07
2019-06-08T03:30:35.421Z,1.20
2019-06-08T03:40:33.921Z,0.70
2019-06-08T03:50:30.648Z,1.20
2019-06-08T04:00:31.277Z,0.65
2019-06-08T04:05:30.676Z,0.60
2019-06-08T04:10:30.597Z,1.10
2019-06-08T04:15:34.231Z,0.80
2019-06-08T04:20:30.641Z,0.72
2019-06-08T04:25:30.567Z,1.12
2019-06-08T04:30:31.198Z,0.80
2019-06-08T04:40:33.124Z,1.62
2019-06-08T04:45:33.501Z,0.68
2019-06-08T04:50:33.592Z,0.90
2019-06-08T04:55:33.090Z,0.78
2019-06-08T05:00:31.434Z,0.55
2019-06-08T05:05:33.093Z,0.72
2019-06-08T05:10:30.621Z,0.88
2019-06-08T05:15:30.595Z,0.70
2019-06-08T05:20:38.915Z,0.80
2019-06-08T05:25:30.666Z,0.78
2019-06-08T05:30:32.724Z,1.00
2019-06-08T05:35:32.665Z,1.00
2019-06-08T05:40:30.604Z,1.00
2019-06-08T05:45:32.696Z,0.57
2019-06-08T05:50:33.164Z,0.60
2019-06-08T05:55:30.687Z,0.80
2019-06-08T06:00:33.578Z,0.90
2019-06-08T06:05:33.180Z,0.55
2019-06-08T06:10:32.621Z,0.80
2019-06-08T06:15:32.708Z,0.93
2019-06-08T06:20:33.081Z,0.98
2019-06-08T06:25:30.597Z,1.00
2019-06-08T06:30:33.071Z,0.78
2019-06-08T06:35:33.632Z,0.80
2019-06-08T06:40:32.599Z,1.05
2019-06-08T06:45:30.582Z,1.15
2019-06-08T06:50:32.729Z,0.88
2019-06-08T06:55:32.761Z,1.00
2019-06-08T07:00:33.908Z,1.25
2019-06-08T07:05:30.763Z,1.10
2019-06-08T07:10:32.613Z,1.25
2019-06-08T07:15:41.116Z,1.10
2019-06-08T07:20:30.598Z,0.75
2019-06-08T07:25:33.070Z,0.82
2019-06-08T07:30:32.594Z,0.90
2019-06-08T07:35:31.014Z,0.93
2019-06-08T07:40:30.598Z,1.15
2019-06-08T07:45:33.099Z,0.95
2019-06-08T07:50:30.630Z,0.95
2019-06-08T07:55:30.681Z,0.98
2019-06-08T08:00:31.402Z,0.78
2019-06-08T08:05:30.637Z,0.78
2019-06-08T08:10:32.730Z,0.90
2019-06-08T08:15:30.683Z,1.00
2019-06-08T08:20:32.598Z,1.10
2019-06-08T08:25:30.617Z,0.80
2019-06-08T08:30:33.091Z,0.90
2019-06-08T08:35:32.606Z,0.98
2019-06-08T08:40:33.108Z,0.98
2019-06-08T08:45:30.767Z,0.80
2019-06-08T08:50:33.244Z,1.02
2019-06-08T08:55:32.563Z,1.00
2019-06-08T09:00:33.460Z,1.00
2019-06-08T09:05:30.600Z,1.12
2019-06-08T09:10:30.658Z,1.17
2019-06-08T09:15:31.532Z,1.45
2019-06-08T09:20:33.512Z,0.95
2019-06-08T09:25:32.603Z,1.10
2019-06-08T09:30:33.189Z,1.17
2019-06-08T09:35:32.575Z,1.30
2019-06-08T09:40:38.770Z,0.93
2019-06-08T09:45:33.241Z,0.85
2019-06-08T09:50:32.081Z,0.95
2019-06-08T09:55:32.666Z,0.85
2019-06-08T10:00:34.020Z,0.70
2019-06-08T10:05:30.695Z,2.00
2019-06-08T10:10:32.644Z,1.20
2019-06-08T10:15:33.484Z,0.82
2019-06-08T10:20:38.414Z,0.70
2019-06-08T10:25:42.675Z,0.95
2019-06-08T10:30:38.403Z,0.70
2019-06-08T10:35:33.282Z,0.80
2019-06-08T10:40:35.281Z,0.82
2019-06-08T10:45:30.589Z,0.80
2019-06-08T10:50:32.593Z,0.70
2019-06-08T10:55:33.121Z,0.75
2019-06-08T11:00:33.865Z,0.95
2019-06-08T11:05:33.089Z,0.82
2019-06-08T11:10:32.643Z,0.95
2019-06-08T11:15:33.187Z,0.70
2019-06-08T11:20:38.233Z,0.80
2019-06-08T11:25:32.643Z,0.82
2019-06-08T11:30:33.151Z,0.93
2019-06-08T11:35:33.602Z,0.80
2019-06-08T11:40:30.732Z,0.78
2019-06-08T11:45:33.085Z,0.70
2019-06-08T11:50:42.172Z,0.90
2019-06-08T11:55:32.148Z,0.82
2019-06-08T12:05:30.645Z,0.85
2019-06-08T12:10:32.738Z,0.70
2019-06-08T12:15:32.614Z,0.80
2019-06-08T12:20:33.627Z,1.00
2019-06-08T12:25:33.597Z,0.93
2019-06-08T12:30:33.099Z,1.02
2019-06-08T12:35:33.672Z,0.95
2019-06-08T12:40:33.167Z,0.90
2019-06-08T12:45:33.274Z,0.88
2019-06-08T12:50:33.158Z,0.90
2019-06-08T12:55:37.729Z,0.90
2019-06-08T13:00:31.266Z,1.17
2019-06-08T13:05:32.610Z,1.20
2019-06-08T13:10:32.577Z,0.98
2019-06-08T13:15:33.097Z,0.72
2019-06-08T13:20:33.828Z,0.98
2019-06-08T13:25:40.134Z,0.90
2019-06-08T13:30:33.118Z,0.90
2019-06-08T13:35:33.130Z,0.90
2019-06-08T13:40:30.707Z,2.95
2019-06-08T13:45:33.155Z,1.50
2019-06-08T13:50:32.218Z,0.90
2019-06-08T13:55:48.612Z,1.10
2019-06-08T14:00:38.614Z,1.00
2019-06-08T14:05:33.203Z,0.80
2019-06-08T14:10:38.636Z,1.00
2019-06-08T14:15:32.117Z,1.02
2019-06-08T14:20:34.477Z,1.25
2019-06-08T14:25:46.881Z,1.37
2019-06-08T14:30:32.874Z,1.00
2019-06-08T14:35:36.225Z,1.10
2019-06-08T14:40:33.269Z,0.80
2019-06-08T14:45:31.164Z,1.20
2019-06-08T14:50:40.344Z,1.20
2019-06-08T14:55:34.052Z,1.10
2019-06-08T15:00:33.656Z,1.02
2019-06-08T15:05:35.802Z,0.85
2019-06-08T15:10:33.121Z,1.35
2019-06-08T15:15:33.615Z,2.67
2019-06-08T15:20:37.983Z,1.50
2019-06-08T15:25:33.043Z,0.95
2019-06-08T15:30:33.214Z,0.90
2019-06-08T15:35:32.610Z,0.95
2019-06-08T15:40:33.138Z,1.15
2019-06-08T15:45:34.249Z,1.20
2019-06-08T15:50:30.700Z,1.10
2019-06-08T15:55:34.523Z,1.47
2019-06-08T16:00:34.503Z,1.02
2019-06-08T16:05:33.861Z,1.00
2019-06-08T16:10:34.322Z,1.98
2019-06-08T16:15:31.001Z,1.50
2019-06-08T16:20:35.780Z,1.10
2019-06-08T16:25:36.742Z,1.32
2019-06-08T16:30:33.218Z,2.12
2019-06-08T16:35:33.566Z,2.72
2019-06-08T16:40:31.961Z,1.50
2019-06-08T16:45:33.220Z,1.30
2019-06-08T16:50:34.296Z,1.00
2019-06-08T16:55:31.973Z,1.65
2019-06-08T17:00:43.962Z,1.20
2019-06-08T17:05:31.144Z,1.30
2019-06-08T17:10:33.143Z,0.93
2019-06-08T17:15:33.975Z,1.17
2019-06-08T17:20:43.140Z,1.70
2019-06-08T17:25:34.419Z,1.07
2019-06-08T17:30:37.613Z,1.07
2019-06-08T17:35:33.766Z,1.07
2019-06-08T17:40:33.839Z,1.20
2019-06-08T17:45:42.936Z,1.02
2019-06-08T17:50:32.746Z,0.93
2019-06-08T17:55:43.670Z,1.10
2019-06-08T18:00:42.306Z,0.98
2019-06-08T18:05:42.789Z,1.47
2019-06-08T18:10:33.827Z,1.10
2019-06-08T18:15:34.084Z,1.30
2019-06-08T18:20:34.202Z,1.10
2019-06-08T18:25:32.599Z,1.30
2019-06-08T18:30:33.089Z,1.20
2019-06-08T18:35:30.630Z,0.82
2019-06-08T18:40:43.490Z,1.05
2019-06-08T18:45:33.185Z,1.62
2019-06-08T18:50:43.653Z,1.07
2019-06-08T18:55:30.674Z,1.27
2019-06-08T19:00:41.586Z,1.32
2019-06-08T19:05:30.644Z,1.55
2019-06-08T19:10:37.401Z,1.80
2019-06-08T19:15:38.807Z,1.60
2019-06-08T19:20:32.159Z,1.47
2019-06-08T19:25:33.415Z,1.32
2019-06-08T19:30:30.762Z,1.95
2019-06-08T19:40:30.720Z,1.52
2019-06-08T19:50:30.768Z,1.42
2019-06-08T20:00:33.222Z,1.80
2019-06-08T20:10:30.568Z,2.30
2019-06-08T20:20:33.115Z,1.80
2019-06-08T20:30:33.213Z,1.80
2019-06-08T20:40:43.997Z,2.10
2019-06-08T20:50:32.647Z,2.00
2019-06-08T21:00:33.924Z,2.12
2019-06-08T21:10:33.193Z,1.92
2019-06-08T21:20:39.099Z,1.47
2019-06-08T21:30:33.330Z,3.17
2019-06-08T21:40:37.585Z,1.52
2019-06-08T21:50:30.699Z,1.60
2019-06-08T22:00:40.310Z,2.40
2019-06-08T22:15:39.215Z,4.90
2019-06-08T22:30:39.120Z,2.60
2019-06-08T22:40:33.148Z,2.77
2019-06-08T22:50:33.119Z,2.27
2019-06-08T23:00:31.524Z,2.77
2019-06-08T23:20:30.721Z,2.85
2019-06-08T23:30:33.182Z,2.87
2019-06-08T23:40:30.606Z,2.72
2019-06-08T23:50:33.126Z,3.17
